Terminal Aerodrome Forecast
Issued by NWS

Current Version | Previous Version | Text Only | Print | Product List | Glossary On
Versions: 1 2 3 4 5 6 7 8 9 10 11 12
000
FTAK31 PAJN 021721
TAFAYA
TAF
PAYA 021721Z 0218/0318 06004KT P6SM SKC
     FM022100 33005KT P6SM SKC
     FM030600 00000KT P6SM SKC
      AMD LTD TO CLD VIS AND WIND 0301/0310=

USA.gov is the U.S. government's official web portal to all federal, state and local government web resources and services.